Time;durP1;ratioP1;P1;durP2;ratioP2;P2;SDS_P1;SDS_P2;PMS_P1;PMS_P2;Temp;Humidity;BMP_temperature;BMP_pressure;BME280_temperature;BME280_humidity;BME280_pressure;Samples;Min_cycle;Max_cycle;Signal;HPM_P1;HPM_P2
2021/07/09 00:01:22;;;;;;;23.02;14.93;;;15.20;99.90;;;;;;5029339;28;20142;-64
2021/07/09 00:03:48;;;;;;;25.55;15.10;;;15.20;99.90;;;;;;5029938;28;20056;-64
2021/07/09 00:06:13;;;;;;;22.08;15.57;;;15.10;99.90;;;;;;5030895;28;20471;-64
2021/07/09 00:08:39;;;;;;;20.35;15.73;;;15.10;99.90;;;;;;5034509;28;20149;-64
2021/07/09 00:11:05;;;;;;;19.90;15.63;;;15.10;99.90;;;;;;5032044;28;20049;-64
2021/07/09 00:13:31;;;;;;;22.85;17.55;;;15.20;99.90;;;;;;5034128;28;20061;-64
2021/07/09 00:15:58;;;;;;;28.67;18.52;;;15.20;99.90;;;;;;5034205;28;20064;-64
2021/07/09 00:18:24;;;;;;;26.98;17.83;;;15.20;99.90;;;;;;5034162;28;20049;-64
2021/07/09 00:20:49;;;;;;;25.35;18.25;;;15.20;99.90;;;;;;5034154;28;20047;-64
2021/07/09 00:23:15;;;;;;;26.83;19.27;;;15.10;99.90;;;;;;5034202;28;20041;-64
2021/07/09 00:25:41;;;;;;;24.25;18.42;;;15.10;99.90;;;;;;5032719;28;20045;-64
2021/07/09 00:28:07;;;;;;;21.58;16.05;;;15.10;99.90;;;;;;5033039;28;20046;-64
2021/07/09 00:30:32;;;;;;;21.13;15.40;;;15.10;99.90;;;;;;5032795;28;20057;-64
2021/07/09 00:32:58;;;;;;;20.85;15.20;;;15.10;99.90;;;;;;5034145;28;20041;-64
2021/07/09 00:35:24;;;;;;;17.00;12.73;;;15.10;99.90;;;;;;5033812;28;20116;-64
2021/07/09 00:37:49;;;;;;;18.58;13.38;;;15.10;99.90;;;;;;5034158;28;20106;-64
2021/07/09 00:40:15;;;;;;;17.58;13.73;;;15.00;99.90;;;;;;5033415;28;20041;-64
2021/07/09 00:42:42;;;;;;;16.50;12.90;;;15.10;99.90;;;;;;5033691;28;20041;-64
2021/07/09 00:45:09;;;;;;;18.63;13.88;;;15.10;99.90;;;;;;5032453;28;20487;-64
2021/07/09 00:47:36;;;;;;;20.35;14.35;;;15.10;99.90;;;;;;5031376;28;20095;-64
2021/07/09 00:50:04;;;;;;;19.55;15.35;;;15.10;99.90;;;;;;5033572;28;20087;-64
2021/07/09 00:52:30;;;;;;;21.58;15.35;;;15.10;99.90;;;;;;5027395;28;20052;-64
2021/07/09 00:54:56;;;;;;;28.83;17.02;;;15.10;99.90;;;;;;5033481;28;20041;-64
2021/07/09 00:57:22;;;;;;;20.65;16.35;;;15.10;99.90;;;;;;5042678;28;20044;-64
2021/07/09 00:59:48;;;;;;;24.25;16.52;;;15.10;99.90;;;;;;5031994;28;20064;-64
2021/07/09 01:02:14;;;;;;;20.02;15.30;;;15.10;99.90;;;;;;5033287;28;20494;-64
2021/07/09 01:04:40;;;;;;;24.30;16.67;;;15.10;99.90;;;;;;5037561;28;20041;-64
2021/07/09 01:07:06;;;;;;;24.65;16.98;;;15.20;99.90;;;;;;5051113;28;20076;-64
2021/07/09 01:09:32;;;;;;;33.38;20.70;;;15.20;99.90;;;;;;5035244;28;20057;-65
2021/07/09 01:12:01;;;;;;;30.85;22.05;;;15.20;99.90;;;;;;5032712;28;20049;-65
2021/07/09 01:14:26;;;;;;;36.10;23.13;;;15.20;99.90;;;;;;5033083;28;20443;-65
2021/07/09 01:16:52;;;;;;;38.30;25.30;;;15.20;99.90;;;;;;5012927;28;20072;-65
2021/07/09 01:19:19;;;;;;;39.58;23.95;;;15.30;99.90;;;;;;5031467;28;20076;-65
2021/07/09 01:21:46;;;;;;;34.72;22.85;;;15.30;99.90;;;;;;5033037;28;20045;-65
2021/07/09 01:24:12;;;;;;;32.08;22.00;;;15.30;99.90;;;;;;5032884;28;20037;-65
2021/07/09 01:26:40;;;;;;;36.17;23.85;;;15.30;99.90;;;;;;5033024;28;20048;-65
2021/07/09 01:29:06;;;;;;;43.60;25.38;;;15.30;99.90;;;;;;5032908;28;20113;-65
2021/07/09 01:31:33;;;;;;;37.03;23.70;;;15.40;99.90;;;;;;5031595;28;20116;-65
2021/07/09 01:34:02;;;;;;;37.58;25.00;;;15.40;99.90;;;;;;5032688;28;20035;-65
2021/07/09 01:36:28;;;;;;;36.47;24.73;;;15.40;99.90;;;;;;5032752;28;20091;-65
2021/07/09 01:38:54;;;;;;;34.13;23.85;;;15.40;99.90;;;;;;5031958;28;20498;-65
2021/07/09 01:41:20;;;;;;;35.97;23.80;;;15.40;99.90;;;;;;5043715;28;20125;-65
2021/07/09 01:43:46;;;;;;;34.67;21.90;;;15.40;99.90;;;;;;5032507;28;20095;-65
2021/07/09 01:46:12;;;;;;;34.70;22.42;;;15.40;99.90;;;;;;5031476;28;20460;-65
2021/07/09 01:48:39;;;;;;;32.42;22.95;;;15.40;99.90;;;;;;5032227;28;20117;-65
2021/07/09 01:51:06;;;;;;;31.70;22.75;;;15.40;99.90;;;;;;5032349;28;20156;-65
2021/07/09 01:53:32;;;;;;;35.97;23.85;;;15.40;99.90;;;;;;5032673;28;20047;-65
2021/07/09 01:55:57;;;;;;;33.92;23.38;;;15.40;99.90;;;;;;5031984;28;20112;-65
2021/07/09 01:58:24;;;;;;;31.50;22.05;;;15.40;99.90;;;;;;5031017;28;20121;-65
2021/07/09 02:00:50;;;;;;;30.10;22.88;;;15.40;99.90;;;;;;5032709;28;20037;-65
2021/07/09 02:03:17;;;;;;;38.63;25.30;;;15.40;99.90;;;;;;5031040;28;20449;-65
2021/07/09 02:05:43;;;;;;;36.63;24.92;;;15.30;99.90;;;;;;5034307;28;20103;-65
2021/07/09 02:08:08;;;;;;;40.80;26.85;;;15.30;99.90;;;;;;5038125;28;20045;-65
2021/07/09 02:10:38;;;;;;;34.03;23.70;;;15.30;99.90;;;;;;5032156;28;20048;-65
2021/07/09 02:13:04;;;;;;;40.53;25.55;;;15.30;99.90;;;;;;5031882;28;20037;-65
2021/07/09 02:15:39;;;;;;;40.55;26.00;;;15.30;99.90;;;;;;5032430;28;20038;-65
2021/07/09 02:18:06;;;;;;;38.95;25.38;;;15.30;99.90;;;;;;5031554;28;20046;-65
2021/07/09 02:20:32;;;;;;;36.65;24.58;;;15.30;99.90;;;;;;5030827;28;20037;-65
2021/07/09 02:22:59;;;;;;;40.45;25.20;;;15.30;99.90;;;;;;5031784;28;20360;-65
2021/07/09 02:25:26;;;;;;;36.95;25.67;;;15.30;99.90;;;;;;5032069;28;20099;-65
2021/07/09 02:27:53;;;;;;;49.53;26.08;;;15.30;99.90;;;;;;5031813;28;20056;-65
2021/07/09 02:30:20;;;;;;;41.60;25.08;;;15.20;99.90;;;;;;5031771;28;20047;-66
2021/07/09 02:32:47;;;;;;;53.63;24.98;;;15.10;99.90;;;;;;5031687;28;20037;-66
2021/07/09 02:35:15;;;;;;;36.13;22.80;;;15.10;99.90;;;;;;5031697;28;20037;-66
2021/07/09 02:37:42;;;;;;;42.13;25.42;;;15.10;99.90;;;;;;5030023;28;20037;-66
2021/07/09 02:40:12;;;;;;;41.72;26.15;;;15.00;99.90;;;;;;5031765;28;20041;-66
2021/07/09 02:42:39;;;;;;;41.80;25.58;;;15.00;99.90;;;;;;5031391;28;20033;-66
2021/07/09 02:45:06;;;;;;;33.63;23.98;;;15.00;99.90;;;;;;5031648;28;20037;-66
2021/07/09 02:47:32;;;;;;;39.83;26.00;;;15.10;99.90;;;;;;5031234;28;20033;-66
2021/07/09 02:49:58;;;;;;;33.88;24.25;;;15.10;99.90;;;;;;5012204;28;20047;-66
2021/07/09 02:52:24;;;;;;;36.83;26.67;;;15.10;99.90;;;;;;5024569;28;20498;-66
2021/07/09 02:54:50;;;;;;;37.80;26.90;;;15.20;99.90;;;;;;5030344;28;20045;-66
2021/07/09 02:57:15;;;;;;;36.63;25.77;;;15.20;99.90;;;;;;5030957;28;20050;-66
2021/07/09 02:59:41;;;;;;;42.22;27.75;;;15.20;99.90;;;;;;5031561;28;20045;-66
2021/07/09 03:02:07;;;;;;;39.75;26.83;;;15.20;99.90;;;;;;5030933;28;20047;-66
2021/07/09 03:04:32;;;;;;;32.75;24.05;;;15.20;99.90;;;;;;5031308;28;20052;-66
2021/07/09 03:06:58;;;;;;;40.60;29.40;;;15.20;99.90;;;;;;5030281;28;20415;-66
2021/07/09 03:09:23;;;;;;;31.35;24.80;;;15.20;99.90;;;;;;5036719;28;20037;-66
2021/07/09 03:11:49;;;;;;;42.00;30.80;;;15.20;99.90;;;;;;5030280;28;20809;-66
2021/07/09 03:14:14;;;;;;;45.30;31.63;;;15.30;99.90;;;;;;5030365;28;20426;-66
2021/07/09 03:16:40;;;;;;;45.45;34.17;;;15.20;99.90;;;;;;5030336;28;20045;-66
2021/07/09 03:19:07;;;;;;;41.78;31.88;;;15.20;99.90;;;;;;5030303;28;20065;-66
2021/07/09 03:21:36;;;;;;;47.35;34.22;;;15.20;99.90;;;;;;5030216;28;20045;-66
2021/07/09 03:24:03;;;;;;;48.70;34.05;;;15.20;99.90;;;;;;5030185;28;20041;-66
2021/07/09 03:26:28;;;;;;;48.65;35.13;;;15.20;99.90;;;;;;5029359;28;20037;-66
2021/07/09 03:28:57;;;;;;;49.40;35.33;;;15.20;99.90;;;;;;5030144;28;20037;-66
2021/07/09 03:31:28;;;;;;;44.15;32.85;;;15.20;99.90;;;;;;5029925;28;20055;-66
2021/07/09 03:33:53;;;;;;;47.80;34.17;;;15.10;99.90;;;;;;5030037;28;20048;-66
2021/07/09 03:36:20;;;;;;;41.05;31.75;;;15.20;99.90;;;;;;5029906;28;20049;-66
2021/07/09 03:38:46;;;;;;;46.20;34.15;;;15.20;99.90;;;;;;5030241;28;20044;-66
2021/07/09 03:41:12;;;;;;;38.90;30.38;;;15.20;99.90;;;;;;5029871;28;20036;-66
2021/07/09 03:43:38;;;;;;;40.67;32.90;;;15.20;99.90;;;;;;5034040;28;20041;-66
2021/07/09 03:46:03;;;;;;;45.10;32.08;;;15.20;99.90;;;;;;5033884;28;20475;-66
2021/07/09 03:48:30;;;;;;;45.58;34.85;;;15.30;99.90;;;;;;5034643;28;20083;-66
2021/07/09 03:50:56;;;;;;;48.47;34.45;;;15.30;99.90;;;;;;5034908;28;20050;-66
2021/07/09 03:53:22;;;;;;;46.88;34.70;;;15.20;99.90;;;;;;5030295;28;20041;-66
2021/07/09 03:55:47;;;;;;;48.67;33.67;;;15.30;99.90;;;;;;5027674;28;20043;-66
2021/07/09 03:58:13;;;;;;;47.30;32.00;;;15.20;99.90;;;;;;5048669;28;20047;-66
2021/07/09 04:00:39;;;;;;;40.42;30.75;;;15.30;99.90;;;;;;5033472;28;20057;-66
2021/07/09 04:03:04;;;;;;;48.33;33.88;;;15.30;99.90;;;;;;5034388;28;20075;-66
2021/07/09 04:05:30;;;;;;;46.75;32.17;;;15.30;99.90;;;;;;5034317;28;20044;-66
2021/07/09 04:07:56;;;;;;;46.72;32.85;;;15.30;99.90;;;;;;5033518;28;20619;-66
2021/07/09 04:10:22;;;;;;;44.97;31.08;;;15.30;99.90;;;;;;5052168;28;20127;-66
2021/07/09 04:12:47;;;;;;;54.47;32.97;;;15.30;99.90;;;;;;5037000;28;20125;-66
2021/07/09 04:15:13;;;;;;;42.83;31.10;;;15.30;99.90;;;;;;5033696;28;20045;-66
2021/07/09 04:17:39;;;;;;;49.97;32.72;;;15.30;99.90;;;;;;5033186;28;20076;-66
2021/07/09 04:20:06;;;;;;;48.28;31.65;;;15.30;99.90;;;;;;5016125;28;20034;-66
2021/07/09 04:22:33;;;;;;;44.92;30.67;;;15.30;99.90;;;;;;5034129;28;20057;-65
2021/07/09 04:24:58;;;;;;;48.95;31.33;;;15.30;99.90;;;;;;5034075;28;20041;-65
2021/07/09 04:27:24;;;;;;;53.95;33.95;;;15.30;99.90;;;;;;5033884;28;20060;-65
2021/07/09 04:29:50;;;;;;;44.55;31.45;;;15.40;99.90;;;;;;5032555;28;20048;-65
2021/07/09 04:32:15;;;;;;;41.90;30.77;;;15.40;99.90;;;;;;5034055;28;20130;-65
2021/07/09 04:34:41;;;;;;;40.83;29.42;;;15.40;99.90;;;;;;5032706;28;20053;-65
2021/07/09 04:37:08;;;;;;;50.33;29.65;;;15.50;99.90;;;;;;5033727;28;20117;-64
2021/07/09 04:39:36;;;;;;;49.75;30.30;;;15.40;99.90;;;;;;5027385;28;20041;-65
2021/07/09 04:42:04;;;;;;;53.67;30.52;;;15.50;99.90;;;;;;5009990;28;20047;-65
2021/07/09 04:44:30;;;;;;;51.30;30.73;;;15.50;99.90;;;;;;5033384;28;20041;-65
2021/07/09 04:47:00;;;;;;;42.53;28.17;;;15.40;99.90;;;;;;5033881;28;20038;-65
2021/07/09 04:49:26;;;;;;;40.53;28.73;;;15.40;99.90;;;;;;5032347;28;20034;-65
2021/07/09 04:51:53;;;;;;;39.85;28.50;;;15.60;99.90;;;;;;5016703;28;20046;-65
2021/07/09 04:54:19;;;;;;;38.88;28.33;;;15.60;99.90;;;;;;5033335;28;20060;-65
2021/07/09 04:56:44;;;;;;;38.45;27.25;;;15.70;99.90;;;;;;5032354;28;20044;-65
2021/07/09 04:59:10;;;;;;;38.28;27.70;;;15.70;99.90;;;;;;5033332;28;20073;-65
2021/07/09 05:01:36;;;;;;;37.17;26.35;;;15.80;99.90;;;;;;5033558;28;20049;-65
2021/07/09 05:04:02;;;;;;;39.42;27.17;;;15.90;99.90;;;;;;5033553;28;20037;-65
2021/07/09 05:06:28;;;;;;;41.25;27.02;;;15.90;99.90;;;;;;5033116;28;20045;-66
2021/07/09 05:08:53;;;;;;;43.80;27.95;;;16.00;99.90;;;;;;5037874;28;20376;-66
2021/07/09 05:11:19;;;;;;;40.13;28.17;;;16.00;99.90;;;;;;5038814;28;20066;-66
2021/07/09 05:13:46;;;;;;;37.92;26.17;;;16.10;99.90;;;;;;5032723;28;20624;-66
2021/07/09 05:16:12;;;;;;;36.13;26.83;;;16.10;99.90;;;;;;5030505;28;20041;-66
2021/07/09 05:18:38;;;;;;;36.10;25.48;;;16.20;99.90;;;;;;5032756;28;20123;-66
2021/07/09 05:21:03;;;;;;;37.67;26.70;;;16.20;99.90;;;;;;5027967;28;20037;-66
2021/07/09 05:23:29;;;;;;;34.92;25.88;;;16.20;99.90;;;;;;5021122;28;20108;-66
2021/07/09 05:25:54;;;;;;;38.33;27.17;;;16.30;99.90;;;;;;5032469;28;20057;-66
2021/07/09 05:28:20;;;;;;;35.10;26.35;;;16.30;99.90;;;;;;5032683;28;20076;-66
2021/07/09 05:30:46;;;;;;;37.55;28.17;;;16.30;99.90;;;;;;5032490;28;20042;-66
2021/07/09 05:33:15;;;;;;;37.58;27.17;;;16.30;99.90;;;;;;5032603;28;20049;-66
2021/07/09 05:35:43;;;;;;;37.85;26.50;;;16.40;99.90;;;;;;5032437;28;20045;-66
2021/07/09 05:38:09;;;;;;;37.97;27.88;;;16.40;99.90;;;;;;5032532;28;20041;-66
2021/07/09 05:40:35;;;;;;;36.80;27.08;;;16.40;99.90;;;;;;5031298;28;20041;-65
2021/07/09 05:43:01;;;;;;;38.58;27.75;;;16.50;99.90;;;;;;5015629;28;20033;-65
2021/07/09 05:45:28;;;;;;;38.28;27.45;;;16.50;99.90;;;;;;5020863;28;20045;-65
2021/07/09 05:47:54;;;;;;;35.03;27.10;;;16.60;99.90;;;;;;5032589;28;20441;-65
2021/07/09 05:50:20;;;;;;;41.70;28.38;;;16.70;99.90;;;;;;5032305;28;20131;-65
2021/07/09 05:52:48;;;;;;;36.00;26.25;;;16.80;99.90;;;;;;5032675;28;20042;-65
2021/07/09 05:55:14;;;;;;;33.80;27.08;;;17.00;99.90;;;;;;5032335;28;20156;-65
2021/07/09 05:57:41;;;;;;;28.95;24.98;;;18.10;99.90;;;;;;5050965;28;20065;-65
2021/07/09 06:00:10;;;;;;;33.45;24.95;;;19.20;99.90;;;;;;5033539;28;20034;-65
2021/07/09 06:02:36;;;;;;;26.73;23.23;;;20.20;99.90;;;;;;5032281;28;20117;-66
2021/07/09 06:05:07;;;;;;;25.48;21.80;;;20.60;99.90;;;;;;5027737;28;20129;-66
2021/07/09 06:07:33;;;;;;;28.20;21.70;;;20.90;99.90;;;;;;5024645;28;20133;-66
2021/07/09 06:09:59;;;;;;;26.92;22.10;;;20.50;99.90;;;;;;5024135;28;20137;-66
2021/07/09 06:12:24;;;;;;;23.33;20.85;;;20.70;99.90;;;;;;5034744;28;20117;-67
2021/07/09 06:14:55;;;;;;;26.27;21.38;;;21.30;99.90;;;;;;5032146;28;20120;-67
2021/07/09 06:17:21;;;;;;;23.20;19.88;;;21.70;99.90;;;;;;5031704;28;20559;-67
2021/07/09 06:19:47;;;;;;;22.33;19.92;;;21.90;99.90;;;;;;5030773;28;20116;-67
2021/07/09 06:22:13;;;;;;;22.27;19.77;;;21.70;99.90;;;;;;5031302;28;20037;-66
2021/07/09 06:24:38;;;;;;;22.38;19.98;;;22.20;99.90;;;;;;5030882;28;20041;-66
2021/07/09 06:27:04;;;;;;;21.10;18.92;;;22.50;99.90;;;;;;5031467;28;20046;-67
2021/07/09 06:29:29;;;;;;;20.58;18.48;;;23.00;99.90;;;;;;5031855;28;20037;-67
2021/07/09 06:31:55;;;;;;;22.48;18.00;;;22.90;99.90;;;;;;5031532;28;20375;-67
2021/07/09 06:34:22;;;;;;;19.45;17.23;;;23.40;99.70;;;;;;5032038;28;20064;-67
2021/07/09 06:36:47;;;;;;;18.58;16.58;;;23.00;99.90;;;;;;5031138;28;20037;-66
2021/07/09 06:39:13;;;;;;;20.15;18.13;;;23.20;99.90;;;;;;5031837;28;20570;-66
2021/07/09 06:41:39;;;;;;;18.80;16.83;;;23.30;99.90;;;;;;5030074;28;20037;-65
2021/07/09 06:44:05;;;;;;;20.05;17.95;;;22.30;99.80;;;;;;5031588;28;20069;-65
2021/07/09 06:46:30;;;;;;;19.73;16.13;;;22.10;99.90;;;;;;5031275;28;20052;-65
2021/07/09 06:48:57;;;;;;;18.92;15.85;;;22.50;99.90;;;;;;5030219;28;20053;-65
2021/07/09 06:51:23;;;;;;;18.23;16.38;;;22.90;98.30;;;;;;5030957;28;20065;-65
2021/07/09 06:53:49;;;;;;;16.75;15.00;;;22.70;99.70;;;;;;5028355;28;20045;-65
2021/07/09 06:56:15;;;;;;;16.60;14.90;;;22.40;99.80;;;;;;5033679;28;20379;-65
2021/07/09 06:58:41;;;;;;;18.00;16.17;;;22.10;99.90;;;;;;5031633;28;20120;-64
2021/07/09 07:01:07;;;;;;;18.63;16.63;;;22.00;99.90;;;;;;5031442;28;20404;-64
2021/07/09 07:03:33;;;;;;;18.67;16.67;;;21.40;99.90;;;;;;5031095;28;20125;-64
2021/07/09 07:05:59;;;;;;;19.00;17.10;;;21.60;99.90;;;;;;5031437;28;20116;-64
2021/07/09 07:08:25;;;;;;;17.13;15.35;;;22.20;99.90;;;;;;5029951;28;20042;-64
2021/07/09 07:10:52;;;;;;;15.00;13.45;;;22.30;99.90;;;;;;5038059;28;20057;-64
2021/07/09 07:13:19;;;;;;;15.10;13.70;;;22.20;99.90;;;;;;5047262;28;20486;-64
2021/07/09 07:15:45;;;;;;;15.70;13.65;;;21.40;99.90;;;;;;5051146;28;20397;-64
2021/07/09 07:18:12;;;;;;;15.32;13.68;;;21.00;99.90;;;;;;5038340;28;20041;-64
2021/07/09 07:20:42;;;;;;;15.60;13.73;;;20.90;99.90;;;;;;5031194;28;20467;-64
2021/07/09 07:23:09;;;;;;;15.88;13.65;;;20.40;99.90;;;;;;5030567;28;20124;-64
2021/07/09 07:25:36;;;;;;;15.55;13.85;;;20.30;99.90;;;;;;5042539;22;20132;-64
2021/07/09 07:28:02;;;;;;;15.02;13.52;;;20.50;99.90;;;;;;5048025;28;20103;-64
2021/07/09 07:30:28;;;;;;;14.77;12.98;;;20.50;99.90;;;;;;5032103;28;20037;-64
2021/07/09 07:32:54;;;;;;;15.77;14.05;;;20.40;99.90;;;;;;5049246;28;20063;-64
2021/07/09 07:35:21;;;;;;;14.10;12.60;;;20.50;99.90;;;;;;5049420;28;20037;-64
2021/07/09 07:37:47;;;;;;;17.00;13.27;;;20.40;99.90;;;;;;5031632;28;20393;-64
2021/07/09 07:40:12;;;;;;;15.60;13.82;;;19.90;99.90;;;;;;5051063;28;20108;-64
2021/07/09 07:42:38;;;;;;;15.75;13.05;;;19.70;99.90;;;;;;5045078;28;20069;-63
2021/07/09 07:45:05;;;;;;;16.33;14.63;;;19.80;99.90;;;;;;5052729;28;20041;-64
2021/07/09 07:47:31;;;;;;;15.23;13.73;;;19.90;99.90;;;;;;5045668;28;20045;-64
2021/07/09 07:49:57;;;;;;;14.70;13.02;;;20.00;99.90;;;;;;5032161;28;20044;-63
2021/07/09 07:52:23;;;;;;;13.93;12.00;;;20.60;99.90;;;;;;5048252;28;20379;-64
2021/07/09 07:54:49;;;;;;;14.13;12.07;;;21.50;99.90;;;;;;5048685;28;20064;-68
2021/07/09 07:57:14;;;;;;;12.45;11.20;;;22.20;99.90;;;;;;5047824;28;20454;-68
2021/07/09 07:59:41;;;;;;;12.38;11.10;;;22.10;99.90;;;;;;5050198;28;20060;-68
2021/07/09 08:02:08;;;;;;;12.73;11.10;;;22.00;99.80;;;;;;5052553;28;20450;-68
2021/07/09 08:04:34;;;;;;;12.40;10.23;;;21.60;99.90;;;;;;5048600;28;20052;-68
2021/07/09 08:07:00;;;;;;;11.90;10.73;;;22.00;99.90;;;;;;5032240;28;20036;-68
2021/07/09 08:09:26;;;;;;;12.48;10.60;;;22.10;99.20;;;;;;5049943;28;20524;-69
2021/07/09 08:11:57;;;;;;;12.27;10.43;;;22.10;99.00;;;;;;5055867;28;20044;-67
2021/07/09 08:14:23;;;;;;;10.82;9.55;;;22.80;99.10;;;;;;5053542;28;20045;-67
2021/07/09 08:16:51;;;;;;;10.45;9.35;;;22.80;98.60;;;;;;5049145;28;20528;-68
2021/07/09 08:19:21;;;;;;;9.88;8.85;;;22.70;98.10;;;;;;5049040;28;20188;-68
2021/07/09 08:21:47;;;;;;;10.93;9.02;;;22.60;99.10;;;;;;5049911;28;20033;-67
2021/07/09 08:24:15;;;;;;;11.02;9.40;;;22.70;98.70;;;;;;5049990;28;20474;-67
2021/07/09 08:26:41;;;;;;;10.32;9.15;;;22.70;99.20;;;;;;5044937;28;20115;-68
2021/07/09 08:29:06;;;;;;;10.25;9.18;;;22.60;98.80;;;;;;5047577;28;20484;-67
2021/07/09 08:31:33;;;;;;;10.60;8.98;;;22.50;98.80;;;;;;5051052;28;20453;-67
2021/07/09 08:34:00;;;;;;;9.55;8.45;;;22.20;98.40;;;;;;5046499;28;20655;-68
2021/07/09 08:36:26;;;;;;;9.57;8.68;;;22.10;98.60;;;;;;5041799;28;20120;-68
2021/07/09 08:38:53;;;;;;;10.10;9.10;;;22.10;99.20;;;;;;5042296;28;20065;-68
2021/07/09 08:41:20;;;;;;;9.63;8.60;;;22.10;99.10;;;;;;5049409;28;20048;-68
2021/07/09 08:43:46;;;;;;;9.50;8.65;;;21.80;98.20;;;;;;5046014;28;20083;-67
2021/07/09 08:46:13;;;;;;;8.20;7.25;;;21.50;98.60;;;;;;5051643;28;20040;-63
2021/07/09 08:48:40;;;;;;;8.20;7.40;;;21.20;99.90;;;;;;5044057;28;20040;-63
2021/07/09 08:51:06;;;;;;;9.77;8.88;;;21.50;99.90;;;;;;5045275;28;20034;-63
2021/07/09 08:53:32;;;;;;;9.77;8.88;;;21.70;99.90;;;;;;5050890;28;20048;-63
2021/07/09 08:55:59;;;;;;;9.85;9.05;;;21.90;99.80;;;;;;5053661;28;20051;-63
2021/07/09 08:58:25;;;;;;;10.88;9.20;;;21.60;98.50;;;;;;5055500;28;20074;-63
2021/07/09 09:00:51;;;;;;;10.15;9.13;;;21.90;99.00;;;;;;5052559;28;20128;-63
2021/07/09 09:03:20;;;;;;;9.05;8.15;;;22.20;99.50;;;;;;5025965;28;20449;-63
2021/07/09 09:05:47;;;;;;;10.57;9.10;;;22.40;99.10;;;;;;5039794;28;20034;-64
2021/07/09 09:08:16;;;;;;;9.40;8.50;;;22.60;97.80;;;;;;5040512;28;20041;-63
2021/07/09 09:10:48;;;;;;;10.20;9.10;;;22.10;98.50;;;;;;5052459;28;20044;-63
2021/07/09 09:13:25;;;;;;;9.02;8.13;;;21.70;97.70;;;;;;5051368;28;20090;-63
2021/07/09 09:16:12;;;;;;;9.38;8.30;;;21.70;98.40;;;;;;5055124;28;20383;-63
2021/07/09 09:18:44;;;;;;;10.27;9.07;;;21.60;98.60;;;;;;5044921;28;20069;-63
2021/07/09 09:21:12;;;;;;;9.13;8.30;;;22.00;98.40;;;;;;5047594;28;20037;-64
2021/07/09 09:23:52;;;;;;;9.25;8.15;;;22.20;98.80;;;;;;5031077;28;20530;-64
2021/07/09 09:26:47;;;;;;;10.70;8.90;;;22.40;99.10;;;;;;5028435;28;20179;-64
2021/07/09 09:29:37;;;;;;;10.35;9.25;;;22.00;97.90;;;;;;5037255;28;20112;-63
2021/07/09 09:32:07;;;;;;;10.07;8.88;;;22.20;97.10;;;;;;5021755;28;20533;-64
2021/07/09 09:34:47;;;;;;;9.50;8.55;;;22.20;96.90;;;;;;5046684;28;20040;-64
2021/07/09 09:37:18;;;;;;;8.48;7.68;;;22.50;98.60;;;;;;5043248;28;20041;-64
2021/07/09 09:39:45;;;;;;;9.57;6.63;;;22.70;97.00;;;;;;5041663;28;20033;-63
2021/07/09 09:42:24;;;;;;;8.65;7.82;;;23.00;97.50;;;;;;5051986;28;20116;-63
2021/07/09 09:44:59;;;;;;;9.05;8.13;;;23.30;95.60;;;;;;5052699;28;20036;-64
2021/07/09 09:47:29;;;;;;;8.55;7.72;;;23.40;95.60;;;;;;5052657;28;20045;-63
2021/07/09 09:49:57;;;;;;;8.65;7.47;;;23.60;94.60;;;;;;5052700;28;20033;-63
2021/07/09 09:52:37;;;;;;;8.10;7.30;;;23.60;94.90;;;;;;5052769;28;20116;-64
2021/07/09 09:55:06;;;;;;;6.68;6.07;;;23.50;94.90;;;;;;5045778;28;20041;-64
2021/07/09 09:57:32;;;;;;;7.50;6.80;;;23.30;93.60;;;;;;5042572;28;20041;-64
2021/07/09 09:59:58;;;;;;;6.88;6.07;;;23.10;95.30;;;;;;5048660;28;20091;-64
2021/07/09 10:02:23;;;;;;;8.13;6.90;;;23.00;95.60;;;;;;5021868;28;20255;-63
2021/07/09 10:04:49;;;;;;;7.65;6.90;;;23.20;95.90;;;;;;5042404;28;20332;-63
2021/07/09 10:07:15;;;;;;;7.68;6.85;;;23.30;95.40;;;;;;5044180;28;20052;-64
2021/07/09 10:09:41;;;;;;;10.10;6.63;;;23.20;94.40;;;;;;5042642;28;20041;-62
2021/07/09 10:12:09;;;;;;;11.02;6.85;;;23.40;95.30;;;;;;5041077;28;20399;-64
2021/07/09 10:14:38;;;;;;;7.38;6.68;;;23.20;94.90;;;;;;5065423;28;20032;-64
2021/07/09 10:17:04;;;;;;;8.85;7.80;;;23.10;94.90;;;;;;5052591;28;20742;-64
2021/07/09 10:19:38;;;;;;;8.60;7.65;;;23.20;95.40;;;;;;5051931;28;20041;-64
2021/07/09 10:22:05;;;;;;;8.30;7.50;;;22.90;96.90;;;;;;5050509;28;20043;-63
2021/07/09 10:24:32;;;;;;;9.00;7.18;;;22.50;95.40;;;;;;5051672;28;20578;-64
2021/07/09 10:26:58;;;;;;;7.00;6.40;;;22.90;96.20;;;;;;5051906;28;20040;-64
2021/07/09 10:29:26;;;;;;;6.97;6.32;;;22.60;96.70;;;;;;5041557;28;20068;-64
2021/07/09 10:31:53;;;;;;;7.53;6.82;;;22.80;97.10;;;;;;5031958;28;20073;-64
2021/07/09 10:34:49;;;;;;;8.13;6.22;;;22.60;96.70;;;;;;5038938;28;20041;-64
2021/07/09 10:37:22;;;;;;;7.35;6.75;;;22.40;97.00;;;;;;5051635;28;20040;-64
2021/07/09 10:39:50;;;;;;;6.38;5.78;;;22.50;98.40;;;;;;5043747;28;20053;-63
2021/07/09 10:42:27;;;;;;;8.18;6.40;;;22.20;96.50;;;;;;5031133;28;20047;-64
2021/07/09 10:45:08;;;;;;;7.35;6.60;;;22.40;97.30;;;;;;5030903;28;20471;-64
2021/07/09 10:47:39;;;;;;;7.47;6.78;;;22.60;96.40;;;;;;5031515;28;20045;-63
2021/07/09 10:50:07;;;;;;;7.93;7.18;;;22.80;96.10;;;;;;5031198;28;20141;-64
2021/07/09 10:52:59;;;;;;;6.90;6.25;;;22.40;95.80;;;;;;5048481;28;20051;-64
2021/07/09 10:55:24;;;;;;;6.40;5.70;;;22.90;96.80;;;;;;5051196;28;20049;-64
2021/07/09 10:58:06;;;;;;;7.20;6.10;;;23.30;95.30;;;;;;5066807;28;20481;-64
2021/07/09 11:00:50;;;;;;;6.88;6.28;;;23.50;95.20;;;;;;5061303;28;20029;-64
2021/07/09 11:03:39;;;;;;;6.57;5.97;;;23.50;93.50;;;;;;5051160;28;20115;-64
2021/07/09 11:06:13;;;;;;;5.65;5.15;;;23.80;95.00;;;;;;5050928;28;20048;-64
2021/07/09 11:08:59;;;;;;;6.43;5.65;;;24.00;94.40;;;;;;5050746;28;20048;-64
2021/07/09 11:11:28;;;;;;;6.57;5.97;;;24.00;92.90;;;;;;5050864;28;20120;-64
2021/07/09 11:13:57;;;;;;;6.38;5.80;;;23.40;93.90;;;;;;5051653;28;20041;-64
2021/07/09 11:16:27;;;;;;;6.13;5.53;;;23.10;94.20;;;;;;5060032;28;20440;-64
2021/07/09 11:19:04;;;;;;;5.97;5.38;;;23.70;94.80;;;;;;5071035;28;20405;-64
2021/07/09 11:21:30;;;;;;;8.20;5.15;;;23.90;94.30;;;;;;5046330;28;20065;-64
2021/07/09 11:23:56;;;;;;;7.50;5.90;;;24.20;94.50;;;;;;5030449;28;20065;-64
2021/07/09 11:26:23;;;;;;;6.65;5.95;;;24.40;93.20;;;;;;5046227;28;20053;-64
2021/07/09 11:28:49;;;;;;;6.45;5.80;;;24.40;93.70;;;;;;5050331;28;20048;-64
2021/07/09 11:31:31;;;;;;;5.95;5.45;;;24.50;92.70;;;;;;5050306;28;20371;-64
2021/07/09 11:34:08;;;;;;;6.70;6.20;;;24.10;92.40;;;;;;5030399;28;20071;-64
2021/07/09 11:36:43;;;;;;;6.07;5.57;;;23.60;93.50;;;;;;5030606;28;20038;-64
2021/07/09 11:39:11;;;;;;;7.60;5.72;;;23.60;94.20;;;;;;5033468;28;20055;-62
2021/07/09 11:42:14;;;;;;;7.35;6.70;;;23.60;96.20;;;;;;5049271;28;20116;-62
2021/07/09 11:44:44;;;;;;;6.45;5.95;;;23.40;92.60;;;;;;5050161;28;20425;-62
2021/07/09 11:47:16;;;;;;;6.32;5.80;;;23.60;94.90;;;;;;5050406;28;20047;-62
2021/07/09 11:49:47;;;;;;;6.75;6.05;;;23.70;94.10;;;;;;5028125;28;20048;-62
2021/07/09 11:52:14;;;;;;;6.03;5.47;;;23.50;92.70;;;;;;5035609;28;20029;-62
2021/07/09 11:54:47;;;;;;;6.75;6.10;;;23.60;93.00;;;;;;5050481;28;20493;-62
2021/07/09 11:57:17;;;;;;;5.55;5.13;;;23.40;92.90;;;;;;5052917;28;20036;-62
2021/07/09 11:59:49;;;;;;;5.15;4.75;;;23.70;93.60;;;;;;5050272;28;20045;-62
2021/07/09 12:02:15;;;;;;;6.25;5.75;;;24.30;93.80;;;;;;5050120;28;20036;-62
2021/07/09 12:04:43;;;;;;;6.63;6.13;;;24.00;91.80;;;;;;5051980;28;20051;-62
2021/07/09 12:07:19;;;;;;;6.40;5.60;;;24.20;92.40;;;;;;5046106;28;20135;-62
2021/07/09 12:09:48;;;;;;;6.30;5.70;;;24.20;92.40;;;;;;5054430;28;20055;-62
2021/07/09 12:12:14;;;;;;;6.03;5.50;;;24.10;93.30;;;;;;5054137;28;20041;-62
2021/07/09 12:14:54;;;;;;;8.10;6.72;;;24.30;94.00;;;;;;5053873;28;20410;-62
2021/07/09 12:17:21;;;;;;;6.75;5.15;;;23.70;91.70;;;;;;5058794;28;20059;-62
2021/07/09 12:20:01;;;;;;;6.70;5.38;;;24.20;93.20;;;;;;5074225;28;20047;-62
2021/07/09 12:22:35;;;;;;;5.93;5.22;;;24.10;93.10;;;;;;5048457;28;20367;-62
2021/07/09 12:25:07;;;;;;;5.65;5.15;;;23.90;92.60;;;;;;5034266;28;20050;-62
2021/07/09 12:27:34;;;;;;;6.03;5.43;;;24.10;93.80;;;;;;5037156;28;20060;-62
2021/07/09 12:30:08;;;;;;;6.88;5.50;;;24.40;93.20;;;;;;5053930;28;20508;-62
2021/07/09 12:32:46;;;;;;;5.90;5.20;;;24.40;92.60;;;;;;5053774;28;20083;-62
2021/07/09 12:35:12;;;;;;;6.28;5.10;;;24.30;92.90;;;;;;5053732;28;20032;-62
2021/07/09 12:37:39;;;;;;;5.70;4.90;;;24.10;93.10;;;;;;5053803;28;20045;-62